Mr. Mag — WDE7813 — position and weather

sailwx.info

Track history (hours):
 
Tides and Currents Weather Stations Pressure Air Temp Water Temp Dewpoint Dewpoint Depression Visibility Wind Speed Wind Dir Waves Ship Positions

Mr. Mag

Owner: Tandi Marine, Inc., Larose, LA. More information available from US FCC via Universal Licensing System and Coast Guard Vessel Documentation Center.

Last reported at 2018-May-26 07:06 UTC. Time now 2018-May-26 15:44 UTC.
Position N 29°47' W 093°21'.

Length 46 m; draft 2.5 m.

Type: Passenger vessel. MMSI: 367397990.

Date/timePositionNaut miles runAvg speedWind from/ knotsBaromVisibWave heightAir tempDewpointWater temp
2018-May-26 07:06N 29°47' W 093°21'1 6.0
2018-May-26 06:55N 29°48' W 093°21'1 1.8
2018-May-26 06:18N 29°49' W 093°20'0 0.1
2018-May-26 05:13N 29°49' W 093°20'0 0.0
2018-May-26 04:51N 29°49' W 093°20'0 0.0
2018-May-26 04:18N 29°49' W 093°20'0 0.0
2018-May-26 03:56N 29°49' W 093°20'0 0.0
2018-May-26 02:42N 29°49' W 093°20'0 0.0
2018-May-26 02:29N 29°49' W 093°20'5712.0
2018-May-25 21:46N 29°36' W 092°17'518.1
2018-May-25 21:30N 29°41' W 092°15'714.1
2018-May-25 21:00N 29°47' W 092°11'0 0.3
2018-May-25 20:30N 29°47' W 092°11'0 0.0
2018-May-25 20:00N 29°47' W 092°11'0 0.0
2018-May-25 19:30N 29°47' W 092°11'0 0.2
2018-May-25 19:00N 29°47' W 092°11'0 0.0
2018-May-25 18:30N 29°47' W 092°11'0 0.0
2018-May-25 18:00N 29°47' W 092°11'0 0.0
2018-May-25 17:30N 29°47' W 092°11'0 0.0
2018-May-25 17:00N 29°47' W 092°11'0 0.2
2018-May-25 16:30N 29°47' W 092°11'0 0.0
2018-May-25 16:00N 29°47' W 092°11'1 2.0
2018-May-25 15:30N 29°46' W 092°11'713.6
2018-May-25 15:00N 29°40' W 092°15'6 0.4
2018-May-25 00:56N 29°35' W 092°18'819.4
2018-May-25 00:30N 29°43' W 092°15'510.3
2018-May-25 00:01N 29°47' W 092°11'0 0.0
2018-May-24 23:30N 29°47' W 092°11'0 0.1
2018-May-24 23:00N 29°47' W 092°11'0 0.0
2018-May-24 22:30N 29°47' W 092°11'0 0.0
2018-May-24 22:00N 29°47' W 092°11'0 0.0
2018-May-24 21:30N 29°47' W 092°11'0 0.0
2018-May-24 21:00N 29°47' W 092°11'0 0.0
2018-May-24 20:30N 29°47' W 092°11'0 0.2
2018-May-24 20:00N 29°47' W 092°11'0 0.0
2018-May-24 19:30N 29°47' W 092°11'0 0.0
2018-May-24 19:01N 29°47' W 092°11'0 0.0
2018-May-24 18:31N 29°47' W 092°11'0 0.0
2018-May-24 18:01N 29°47' W 092°11'0 0.0
2018-May-24 17:30N 29°47' W 092°11'0 0.2
2018-May-24 17:01N 29°47' W 092°11'4 8.5
2018-May-24 16:30N 29°44' W 092°15'14 1.4
2018-May-24 07:01N 29°31' W 092°19'7 9.1
2018-May-24 06:17N 29°37' W 092°17'520.2
2018-May-24 06:01N 29°42' W 092°15'611.4
2018-May-24 05:30N 29°47' W 092°11'0 0.0
2018-May-24 05:00N 29°47' W 092°11'0 0.0
2018-May-24 04:30N 29°47' W 092°11'0 0.0
2018-May-24 04:00N 29°47' W 092°11'0 0.0
2018-May-24 03:30N 29°47' W 092°11'0 0.0
2018-May-24 03:00N 29°47' W 092°11'0 0.0
2018-May-24 02:30N 29°47' W 092°11'0 0.0
2018-May-24 02:00N 29°47' W 092°11'0 0.0
2018-May-24 01:30N 29°47' W 092°11'0 0.0
2018-May-24 01:00N 29°47' W 092°11'0 0.0
2018-May-24 00:30N 29°47' W 092°11'0 0.0
2018-May-24 00:00N 29°47' W 092°11'0 0.0
2018-May-23 23:30N 29°47' W 092°11'0 0.0
2018-May-23 23:00N 29°47' W 092°11'0 0.0
2018-May-23 22:30N 29°47' W 092°11'0 0.0
2018-May-23 22:00N 29°47' W 092°11'0 0.2
2018-May-23 21:30N 29°47' W 092°11'0 0.0
2018-May-23 21:00N 29°47' W 092°11'0 0.0
2018-May-23 20:30N 29°47' W 092°11'0 0.0
2018-May-23 20:00N 29°47' W 092°11'0 0.0
2018-May-23 19:30N 29°47' W 092°11'1 1.7
2018-May-23 19:00N 29°46' W 092°10'816.4
2018-May-23 18:30N 29°40' W 092°15'5 0.4
2018-May-23 06:47N 29°35' W 092°18'517.6
2018-May-23 06:30N 29°40' W 092°15'816.0
2018-May-23 06:00N 29°46' W 092°10'1 1.5
2018-May-23 05:30N 29°47' W 092°11'0 0.0
2018-May-23 05:00N 29°47' W 092°11'0 0.0
2018-May-23 04:30N 29°47' W 092°11'0 0.0
2018-May-23 04:00N 29°47' W 092°11'0 0.0
2018-May-23 03:30N 29°47' W 092°11'0 0.0
2018-May-23 03:00N 29°47' W 092°11'0 0.0
2018-May-23 02:30N 29°47' W 092°11'0 0.0
2018-May-23 02:00N 29°47' W 092°11'0 0.0
2018-May-23 01:30N 29°47' W 092°11'0 0.0
2018-May-23 01:00N 29°47' W 092°11'0 0.0
2018-May-23 00:30N 29°47' W 092°11'0 0.0
2018-May-23 00:00N 29°47' W 092°11'0 0.0
2018-May-22 23:30N 29°47' W 092°11'0 0.0
2018-May-22 23:00N 29°47' W 092°11'0 0.0
2018-May-22 22:30N 29°47' W 092°11'0 0.0
2018-May-22 21:59N 29°47' W 092°11'0 0.0
2018-May-22 21:30N 29°47' W 092°11'0 0.0
2018-May-22 21:00N 29°47' W 092°11'0 0.0
2018-May-22 20:30N 29°47' W 092°11'0 0.0
2018-May-22 20:00N 29°47' W 092°11'0 0.0
2018-May-22 19:30N 29°47' W 092°11'0 0.0
2018-May-22 19:00N 29°47' W 092°11'0 0.0
2018-May-22 18:30N 29°47' W 092°11'0 0.0
2018-May-22 18:00N 29°47' W 092°11'0 0.1
2018-May-22 17:30N 29°47' W 092°11'  
2018-May-18 10:52N 29°07' W 091°46'615.6
2018-May-18 10:30N 29°10' W 091°51'1615.0
2018-May-18 09:25N 29°17' W 092°08'715.5
2018-May-18 08:58N 29°16' W 092°16'612.9
2018-May-18 08:30N 29°21' W 092°20'815.8
2018-May-18 08:00N 29°29' W 092°19'5 8.7
2018-May-18 07:28N 29°33' W 092°18'714.4
2018-May-18 07:00N 29°40' W 092°15'714.5
2018-May-18 06:31N 29°46' W 092°11'1 0.6
2018-May-18 04:42N 29°47' W 092°11'0 0.0
2018-May-18 04:29N 29°47' W 092°11'0 0.0
2018-May-18 03:53N 29°47' W 092°11'0 0.0
2018-May-18 03:30N 29°47' W 092°11'50 4.4
2018-May-17 16:11N 28°58' W 091°58'3 0.5
2018-May-17 10:22N 28°55' W 092°00'3 5.8
2018-May-17 09:50N 28°58' W 091°59'919.7
2018-May-17 09:24N 29°03' W 092°07'1419.5
2018-May-17 08:40N 29°11' W 092°20'418.5
2018-May-17 08:29N 29°15' W 092°21'919.1
2018-May-17 08:00N 29°24' W 092°20'917.7
2018-May-17 07:30N 29°33' W 092°18'2 3.5
2018-May-17 07:00N 29°35' W 092°18'917.5
2018-May-17 06:29N 29°43' W 092°15'5 2.8
2018-May-17 04:48N 29°47' W 092°11'0 0.0
2018-May-17 04:29N 29°47' W 092°11'0 0.0
2018-May-17 03:51N 29°47' W 092°11'0 0.0
2018-May-17 03:04N 29°47' W 092°11'0 0.0
2018-May-17 02:45N 29°47' W 092°11'0 0.0
2018-May-17 02:29N 29°47' W 092°11'0 0.2
2018-May-17 02:00N 29°47' W 092°11'45 2.6
2018-May-16 08:32N 29°02' W 092°05'918.1
2018-May-16 08:02N 29°07' W 092°13'217.9
2018-May-16 07:56N 29°08' W 092°15'  
Track history (hours):
 
Tides and Currents Weather Stations Pressure Air Temp Water Temp Dewpoint Dewpoint Depression Visibility Wind Speed Wind Dir Waves Ship Positions

Mr. Mag

Owner: Tandi Marine, Inc., Larose, LA. More information available from US FCC via Universal Licensing System and Coast Guard Vessel Documentation Center.

Last reported at 2018-May-26 07:06 UTC. Time now 2018-May-26 15:44 UTC.
Position N 29°47' W 093°21'.

Length 46 m; draft 2.5 m.

Type: Passenger vessel. MMSI: 367397990.

Date/timePositionNaut miles runAvg speedWind from/ knotsBaromVisibWave heightAir tempDewpointWater temp
2018-May-26 07:06N 29°47' W 093°21'1 6.0
2018-May-26 06:55N 29°48' W 093°21'1 1.8
2018-May-26 06:18N 29°49' W 093°20'0 0.1
2018-May-26 05:13N 29°49' W 093°20'0 0.0
2018-May-26 04:51N 29°49' W 093°20'0 0.0
2018-May-26 04:18N 29°49' W 093°20'0 0.0
2018-May-26 03:56N 29°49' W 093°20'0 0.0
2018-May-26 02:42N 29°49' W 093°20'0 0.0
2018-May-26 02:29N 29°49' W 093°20'5712.0
2018-May-25 21:46N 29°36' W 092°17'518.1
2018-May-25 21:30N 29°41' W 092°15'714.1
2018-May-25 21:00N 29°47' W 092°11'0 0.3
2018-May-25 20:30N 29°47' W 092°11'0 0.0
2018-May-25 20:00N 29°47' W 092°11'0 0.0
2018-May-25 19:30N 29°47' W 092°11'0 0.2
2018-May-25 19:00N 29°47' W 092°11'0 0.0
2018-May-25 18:30N 29°47' W 092°11'0 0.0
2018-May-25 18:00N 29°47' W 092°11'0 0.0
2018-May-25 17:30N 29°47' W 092°11'0 0.0
2018-May-25 17:00N 29°47' W 092°11'0 0.2
2018-May-25 16:30N 29°47' W 092°11'0 0.0
2018-May-25 16:00N 29°47' W 092°11'1 2.0
2018-May-25 15:30N 29°46' W 092°11'713.6
2018-May-25 15:00N 29°40' W 092°15'6 0.4
2018-May-25 00:56N 29°35' W 092°18'819.4
2018-May-25 00:30N 29°43' W 092°15'510.3
2018-May-25 00:01N 29°47' W 092°11'0 0.0
2018-May-24 23:30N 29°47' W 092°11'0 0.1
2018-May-24 23:00N 29°47' W 092°11'0 0.0
2018-May-24 22:30N 29°47' W 092°11'0 0.0
2018-May-24 22:00N 29°47' W 092°11'0 0.0
2018-May-24 21:30N 29°47' W 092°11'0 0.0
2018-May-24 21:00N 29°47' W 092°11'0 0.0
2018-May-24 20:30N 29°47' W 092°11'0 0.2
2018-May-24 20:00N 29°47' W 092°11'0 0.0
2018-May-24 19:30N 29°47' W 092°11'0 0.0
2018-May-24 19:01N 29°47' W 092°11'0 0.0
2018-May-24 18:31N 29°47' W 092°11'0 0.0
2018-May-24 18:01N 29°47' W 092°11'0 0.0
2018-May-24 17:30N 29°47' W 092°11'0 0.2
2018-May-24 17:01N 29°47' W 092°11'4 8.5
2018-May-24 16:30N 29°44' W 092°15'14 1.4
2018-May-24 07:01N 29°31' W 092°19'7 9.1
2018-May-24 06:17N 29°37' W 092°17'520.2
2018-May-24 06:01N 29°42' W 092°15'611.4
2018-May-24 05:30N 29°47' W 092°11'0 0.0
2018-May-24 05:00N 29°47' W 092°11'0 0.0
2018-May-24 04:30N 29°47' W 092°11'0 0.0
2018-May-24 04:00N 29°47' W 092°11'0 0.0
2018-May-24 03:30N 29°47' W 092°11'0 0.0
2018-May-24 03:00N 29°47' W 092°11'0 0.0
2018-May-24 02:30N 29°47' W 092°11'0 0.0
2018-May-24 02:00N 29°47' W 092°11'0 0.0
2018-May-24 01:30N 29°47' W 092°11'0 0.0
2018-May-24 01:00N 29°47' W 092°11'0 0.0
2018-May-24 00:30N 29°47' W 092°11'0 0.0
2018-May-24 00:00N 29°47' W 092°11'0 0.0
2018-May-23 23:30N 29°47' W 092°11'0 0.0
2018-May-23 23:00N 29°47' W 092°11'0 0.0
2018-May-23 22:30N 29°47' W 092°11'0 0.0
2018-May-23 22:00N 29°47' W 092°11'0 0.2
2018-May-23 21:30N 29°47' W 092°11'0 0.0
2018-May-23 21:00N 29°47' W 092°11'0 0.0
2018-May-23 20:30N 29°47' W 092°11'0 0.0
2018-May-23 20:00N 29°47' W 092°11'0 0.0
2018-May-23 19:30N 29°47' W 092°11'1 1.7
2018-May-23 19:00N 29°46' W 092°10'816.4
2018-May-23 18:30N 29°40' W 092°15'5 0.4
2018-May-23 06:47N 29°35' W 092°18'517.6
2018-May-23 06:30N 29°40' W 092°15'816.0
2018-May-23 06:00N 29°46' W 092°10'1 1.5
2018-May-23 05:30N 29°47' W 092°11'0 0.0
2018-May-23 05:00N 29°47' W 092°11'0 0.0
2018-May-23 04:30N 29°47' W 092°11'0 0.0
2018-May-23 04:00N 29°47' W 092°11'0 0.0
2018-May-23 03:30N 29°47' W 092°11'0 0.0
2018-May-23 03:00N 29°47' W 092°11'0 0.0
2018-May-23 02:30N 29°47' W 092°11'0 0.0
2018-May-23 02:00N 29°47' W 092°11'0 0.0
2018-May-23 01:30N 29°47' W 092°11'0 0.0
2018-May-23 01:00N 29°47' W 092°11'0 0.0
2018-May-23 00:30N 29°47' W 092°11'0 0.0
2018-May-23 00:00N 29°47' W 092°11'0 0.0
2018-May-22 23:30N 29°47' W 092°11'0 0.0
2018-May-22 23:00N 29°47' W 092°11'0 0.0
2018-May-22 22:30N 29°47' W 092°11'0 0.0
2018-May-22 21:59N 29°47' W 092°11'0 0.0
2018-May-22 21:30N 29°47' W 092°11'0 0.0
2018-May-22 21:00N 29°47' W 092°11'0 0.0
2018-May-22 20:30N 29°47' W 092°11'0 0.0
2018-May-22 20:00N 29°47' W 092°11'0 0.0
2018-May-22 19:30N 29°47' W 092°11'0 0.0
2018-May-22 19:00N 29°47' W 092°11'0 0.0
2018-May-22 18:30N 29°47' W 092°11'0 0.0
2018-May-22 18:00N 29°47' W 092°11'0 0.1
2018-May-22 17:30N 29°47' W 092°11'  
2018-May-18 10:52N 29°07' W 091°46'615.6
2018-May-18 10:30N 29°10' W 091°51'1615.0
2018-May-18 09:25N 29°17' W 092°08'715.5
2018-May-18 08:58N 29°16' W 092°16'612.9
2018-May-18 08:30N 29°21' W 092°20'815.8
2018-May-18 08:00N 29°29' W 092°19'5 8.7
2018-May-18 07:28N 29°33' W 092°18'714.4
2018-May-18 07:00N 29°40' W 092°15'714.5
2018-May-18 06:31N 29°46' W 092°11'1 0.6
2018-May-18 04:42N 29°47' W 092°11'0 0.0
2018-May-18 04:29N 29°47' W 092°11'0 0.0
2018-May-18 03:53N 29°47' W 092°11'0 0.0
2018-May-18 03:30N 29°47' W 092°11'50 4.4
2018-May-17 16:11N 28°58' W 091°58'3 0.5
2018-May-17 10:22N 28°55' W 092°00'3 5.8
2018-May-17 09:50N 28°58' W 091°59'919.7
2018-May-17 09:24N 29°03' W 092°07'1419.5
2018-May-17 08:40N 29°11' W 092°20'418.5
2018-May-17 08:29N 29°15' W 092°21'919.1
2018-May-17 08:00N 29°24' W 092°20'917.7
2018-May-17 07:30N 29°33' W 092°18'2 3.5
2018-May-17 07:00N 29°35' W 092°18'917.5
2018-May-17 06:29N 29°43' W 092°15'5 2.8
2018-May-17 04:48N 29°47' W 092°11'0 0.0
2018-May-17 04:29N 29°47' W 092°11'0 0.0
2018-May-17 03:51N 29°47' W 092°11'0 0.0
2018-May-17 03:04N 29°47' W 092°11'0 0.0
2018-May-17 02:45N 29°47' W 092°11'0 0.0
2018-May-17 02:29N 29°47' W 092°11'0 0.2
2018-May-17 02:00N 29°47' W 092°11'45 2.6
2018-May-16 08:32N 29°02' W 092°05'918.1
2018-May-16 08:02N 29°07' W 092°13'217.9
2018-May-16 07:56N 29°08' W 092°15'  

Dump ship's entire track history